createdAt,value
2022-11-07T00:03:30.628Z,11.11
2022-11-07T00:08:32.435Z,11.12
2022-11-07T00:13:34.623Z,11.17
2022-11-07T00:18:37.019Z,11.20
2022-11-07T00:23:42.396Z,11.21
2022-11-07T00:28:44.883Z,11.23
2022-11-07T00:33:46.968Z,11.21
2022-11-07T00:38:49.215Z,11.23
2022-11-07T00:43:51.427Z,11.32
2022-11-07T00:48:53.273Z,11.40
2022-11-07T00:53:55.458Z,11.38
2022-11-07T00:58:59.104Z,11.35
2022-11-07T01:04:20.010Z,11.37
2022-11-07T01:09:22.001Z,11.43
2022-11-07T01:14:24.773Z,11.47
2022-11-07T01:19:26.729Z,11.52
2022-11-07T01:24:28.519Z,11.52
2022-11-07T01:29:30.368Z,11.52
2022-11-07T01:34:32.212Z,11.44
2022-11-07T01:39:34.177Z,11.40
2022-11-07T01:44:41.814Z,11.35
2022-11-07T01:49:43.908Z,11.30
2022-11-07T01:54:49.398Z,11.26
2022-11-07T01:59:54.335Z,11.27
2022-11-07T02:04:58.358Z,11.26
2022-11-07T02:10:01.540Z,11.23
2022-11-07T02:15:03.691Z,11.12
2022-11-07T02:20:06.075Z,10.97
2022-11-07T02:25:11.106Z,10.82
2022-11-07T02:30:22.824Z,10.74
2022-11-07T02:35:38.838Z,10.60
2022-11-07T02:40:41.662Z,10.56
2022-11-07T02:45:46.508Z,10.60
2022-11-07T02:50:48.394Z,10.60
2022-11-07T02:55:50.224Z,10.46
2022-11-07T03:00:52.014Z,10.33
2022-11-07T03:05:53.782Z,10.37
2022-11-07T03:10:55.572Z,10.34
2022-11-07T03:15:57.541Z,10.43
2022-11-07T03:20:59.548Z,10.45
2022-11-07T03:26:01.445Z,10.40
2022-11-07T03:31:04.603Z,10.24
2022-11-07T03:36:06.640Z,10.19
2022-11-07T03:41:08.516Z,10.22
2022-11-07T03:46:10.238Z,10.26
2022-11-07T03:51:12.436Z,10.36
2022-11-07T03:56:14.188Z,10.40
2022-11-07T04:01:16.210Z,10.43
2022-11-07T04:06:18.063Z,10.40
2022-11-07T04:11:39.186Z,10.41
2022-11-07T04:17:02.213Z,10.36
2022-11-07T04:22:04.011Z,10.25
2022-11-07T04:27:24.319Z,10.26
2022-11-07T04:32:26.109Z,10.35
2022-11-07T04:37:27.857Z,10.34
2022-11-07T04:42:29.647Z,10.30
2022-11-07T04:47:33.421Z,10.18
2022-11-07T04:52:37.882Z,10.16
2022-11-07T04:57:39.678Z,10.21
2022-11-07T05:02:41.593Z,10.25
2022-11-07T05:07:43.727Z,10.24
2022-11-07T05:12:46.011Z,10.32
2022-11-07T05:17:47.992Z,10.42
2022-11-07T05:23:08.387Z,10.48
2022-11-07T05:28:14.514Z,10.52
2022-11-07T05:33:18.384Z,10.51
2022-11-07T05:38:20.357Z,10.57
2022-11-07T05:43:22.130Z,10.62
2022-11-07T05:48:23.903Z,10.66
2022-11-07T05:53:26.365Z,10.57
2022-11-07T05:58:28.284Z,10.43
2022-11-07T06:03:31.083Z,10.37
2022-11-07T06:08:32.909Z,10.29
2022-11-07T06:13:34.739Z,10.29
2022-11-07T06:18:41.655Z,10.24
2022-11-07T06:23:44.107Z,10.23
2022-11-07T06:28:45.940Z,10.30
2022-11-07T06:33:51.697Z,10.54
2022-11-07T06:38:53.722Z,10.72
2022-11-07T06:43:55.630Z,10.88
2022-11-07T06:48:57.491Z,11.01
2022-11-07T06:53:59.270Z,11.18
2022-11-07T06:59:01.087Z,11.38
2022-11-07T07:04:06.757Z,11.61
2022-11-07T07:09:08.674Z,11.87
2022-11-07T07:14:11.981Z,12.04
2022-11-07T07:19:13.846Z,12.18
2022-11-07T07:24:15.684Z,12.38
2022-11-07T07:29:17.625Z,12.59
2022-11-07T07:34:19.407Z,12.80
2022-11-07T07:39:21.202Z,13.02
2022-11-07T07:44:23.198Z,13.10
2022-11-07T07:49:24.989Z,13.07
2022-11-07T07:54:26.754Z,13.07
2022-11-07T07:59:28.614Z,13.29
2022-11-07T08:04:30.409Z,13.46
2022-11-07T08:09:36.561Z,13.72
2022-11-07T08:14:38.414Z,13.94
2022-11-07T08:19:40.198Z,14.13
2022-11-07T08:24:43.322Z,14.21
2022-11-07T08:29:45.101Z,14.18
2022-11-07T08:34:46.866Z,14.17
2022-11-07T08:39:48.763Z,14.21
2022-11-07T08:44:50.558Z,14.33
2022-11-07T08:49:52.478Z,14.55
2022-11-07T08:54:54.371Z,14.75
2022-11-07T08:59:56.358Z,14.89
2022-11-07T09:04:58.178Z,15.06
2022-11-07T09:10:00.006Z,15.29
2022-11-07T09:15:02.188Z,15.30
2022-11-07T09:20:04.689Z,15.30
2022-11-07T09:25:07.023Z,15.43
2022-11-07T09:30:09.396Z,15.55
2022-11-07T09:35:11.241Z,15.67
2022-11-07T09:40:24.773Z,15.78
2022-11-07T09:45:29.860Z,15.89
2022-11-07T09:50:39.436Z,16.09
2022-11-07T09:55:56.262Z,16.12
2022-11-07T10:01:03.529Z,16.25
2022-11-07T10:06:24.710Z,16.36
2022-11-07T10:11:37.442Z,16.49
2022-11-07T10:16:54.292Z,16.53
2022-11-07T10:22:10.410Z,16.63
2022-11-07T10:27:13.154Z,16.72
2022-11-07T10:32:24.037Z,16.75
2022-11-07T10:37:25.900Z,16.79
2022-11-07T10:42:31.021Z,16.72
2022-11-07T10:47:32.810Z,16.66
2022-11-07T10:52:34.601Z,16.59
2022-11-07T10:57:36.534Z,16.55
2022-11-07T11:02:47.064Z,16.44
2022-11-07T11:07:49.465Z,16.39
2022-11-07T11:12:51.343Z,16.50
2022-11-07T11:18:02.806Z,16.58
2022-11-07T11:23:13.544Z,16.64
2022-11-07T11:28:23.884Z,16.76
2022-11-07T11:33:35.695Z,16.77
2022-11-07T11:38:38.142Z,16.82
2022-11-07T11:43:55.373Z,16.82
2022-11-07T11:49:20.701Z,16.73
2022-11-07T11:54:22.773Z,16.67
2022-11-07T11:59:35.244Z,16.54
2022-11-07T12:05:07.976Z,16.33
2022-11-07T12:10:18.525Z,16.24
2022-11-07T12:15:43.739Z,16.18
2022-11-07T12:21:13.524Z,16.14
2022-11-07T12:26:22.370Z,16.07
2022-11-07T12:31:39.290Z,16.01
2022-11-07T12:36:56.317Z,15.96
2022-11-07T12:42:14.030Z,15.93
2022-11-07T12:47:40.107Z,15.95
2022-11-07T12:52:53.024Z,16.00
2022-11-07T12:57:57.820Z,15.96
2022-11-07T13:03:30.702Z,15.93
2022-11-07T13:08:56.582Z,15.93
2022-11-07T13:14:24.067Z,15.99
2022-11-07T13:19:34.144Z,16.02
2022-11-07T13:24:39.093Z,16.04
2022-11-07T13:29:40.949Z,16.17
2022-11-07T13:34:56.199Z,16.47
2022-11-07T13:40:24.364Z,16.65
2022-11-07T13:45:46.083Z,17.00
2022-11-07T13:51:11.458Z,17.75
2022-11-07T13:56:40.391Z,18.46
2022-11-07T14:01:45.939Z,19.25
2022-11-07T14:06:50.321Z,18.71
2022-11-07T14:11:53.561Z,18.01
2022-11-07T14:17:00.711Z,17.46
2022-11-07T14:22:02.654Z,17.12
2022-11-07T14:27:12.970Z,16.93
2022-11-07T14:32:17.344Z,16.72
2022-11-07T14:37:22.463Z,16.58
2022-11-07T14:42:25.721Z,16.41
2022-11-07T14:47:31.987Z,16.39
2022-11-07T14:52:44.197Z,16.30
2022-11-07T14:57:46.758Z,16.21
2022-11-07T15:02:52.305Z,16.17
2022-11-07T15:07:55.366Z,16.08
2022-11-07T15:13:00.623Z,16.04
2022-11-07T15:18:05.736Z,16.01
2022-11-07T15:23:13.265Z,15.97
2022-11-07T15:28:18.740Z,15.90
2022-11-07T15:33:21.000Z,15.92
2022-11-07T15:38:24.955Z,15.94
2022-11-07T15:43:26.810Z,15.85
2022-11-07T15:48:38.313Z,15.85
2022-11-07T15:53:42.947Z,15.80
2022-11-07T15:58:44.896Z,15.79
2022-11-07T16:03:46.761Z,15.73
2022-11-07T16:08:48.649Z,15.80
2022-11-07T16:13:51.036Z,15.90
2022-11-07T16:18:54.143Z,15.88
2022-11-07T16:23:55.984Z,15.80
2022-11-07T16:28:57.832Z,15.77
2022-11-07T16:33:59.704Z,15.73
2022-11-07T16:39:03.248Z,15.69
2022-11-07T16:44:05.410Z,15.76
2022-11-07T16:49:32.573Z,15.63
2022-11-07T16:54:34.397Z,15.55
2022-11-07T16:59:36.186Z,15.51
2022-11-07T17:04:38.037Z,15.45
2022-11-07T17:09:40.252Z,15.37
2022-11-07T17:14:42.482Z,15.24
2022-11-07T17:19:44.393Z,15.13
2022-11-07T17:24:46.279Z,15.21
2022-11-07T17:29:48.373Z,15.25
2022-11-07T17:35:04.673Z,15.21
2022-11-07T17:40:18.507Z,15.09
2022-11-07T17:45:20.357Z,15.01
2022-11-07T17:50:22.591Z,14.85
2022-11-07T17:55:25.616Z,14.81
2022-11-07T18:00:27.841Z,14.81
2022-11-07T18:05:33.383Z,14.72
2022-11-07T18:10:35.478Z,14.60
2022-11-07T18:15:38.058Z,14.56
2022-11-07T18:20:39.966Z,14.56
2022-11-07T18:25:42.298Z,14.53
2022-11-07T18:30:44.109Z,14.50
2022-11-07T18:35:45.988Z,14.44
2022-11-07T18:41:12.119Z,14.36
2022-11-07T18:46:16.575Z,14.25
2022-11-07T18:51:24.826Z,14.17
2022-11-07T18:56:27.217Z,14.21
2022-11-07T19:01:32.510Z,14.23
2022-11-07T19:06:34.664Z,14.28
2022-11-07T19:11:36.530Z,14.21
2022-11-07T19:16:38.681Z,14.29
2022-11-07T19:21:43.751Z,14.28
2022-11-07T19:26:45.916Z,14.29
2022-11-07T19:31:48.017Z,14.29
2022-11-07T19:36:50.332Z,14.32
2022-11-07T19:41:52.530Z,14.27
2022-11-07T19:46:55.093Z,14.26
2022-11-07T19:51:57.491Z,14.23
2022-11-07T19:56:59.809Z,14.21
2022-11-07T20:02:31.067Z,14.15
2022-11-07T20:07:24.063Z,14.13
2022-11-07T20:12:26.014Z,14.08
2022-11-07T20:17:27.993Z,14.11
2022-11-07T20:22:30.564Z,14.09
2022-11-07T20:27:33.507Z,14.12
2022-11-07T20:32:35.355Z,14.10
2022-11-07T20:37:37.597Z,14.13
2022-11-07T20:42:39.457Z,14.14
2022-11-07T20:47:41.336Z,14.14
2022-11-07T20:52:43.201Z,14.12
2022-11-07T20:57:44.992Z,14.08
2022-11-07T21:02:46.778Z,14.08
2022-11-07T21:07:48.672Z,14.09
2022-11-07T21:12:50.477Z,14.11
2022-11-07T21:17:52.280Z,14.07
2022-11-07T21:22:54.090Z,14.07
2022-11-07T21:27:56.012Z,14.06
2022-11-07T21:32:57.797Z,14.05
2022-11-07T21:37:59.723Z,14.02
2022-11-07T21:43:01.583Z,13.98
2022-11-07T21:48:03.581Z,13.95
2022-11-07T21:53:05.388Z,14.03
2022-11-07T21:58:07.226Z,14.06
2022-11-07T22:03:09.000Z,14.08
2022-11-07T22:08:10.789Z,14.08
2022-11-07T22:13:12.624Z,14.09
2022-11-07T22:18:14.465Z,14.08
2022-11-07T22:23:16.525Z,14.12
2022-11-07T22:28:18.591Z,14.18
2022-11-07T22:33:20.368Z,14.14
2022-11-07T22:38:22.182Z,14.17
2022-11-07T22:43:24.936Z,14.15
2022-11-07T22:48:26.768Z,14.04
2022-11-07T22:53:28.816Z,14.05
2022-11-07T22:58:30.603Z,14.09
2022-11-07T23:03:33.206Z,14.05
2022-11-07T23:08:35.154Z,14.02
2022-11-07T23:13:36.969Z,14.01
2022-11-07T23:18:38.778Z,14.01
2022-11-07T23:23:41.825Z,14.06
2022-11-07T23:28:44.512Z,14.05
2022-11-07T23:33:46.380Z,14.06
2022-11-07T23:38:48.263Z,14.06
2022-11-07T23:43:52.712Z,14.05
2022-11-07T23:49:14.759Z,14.04
2022-11-07T23:54:35.290Z,14.07
2022-11-07T23:59:55.844Z,14.08
